Time;durP1;ratioP1;P1;durP2;ratioP2;P2;SDS_P1;SDS_P2;PMS_P1;PMS_P2;Temp;Humidity;BMP_temperature;BMP_pressure;BME280_temperature;BME280_humidity;BME280_pressure;Samples;Min_cycle;Max_cycle;Signal;HPM_P1;HPM_P2
2022/06/08 00:00:16;;;;;;;13.35;5.35;;;10.70;99.90;;;;;;4988816;28;20155;-78
2022/06/08 00:02:49;;;;;;;18.42;5.45;;;10.70;99.90;;;;;;4990479;28;20044;-80
2022/06/08 00:05:15;;;;;;;12.82;5.82;;;10.70;99.90;;;;;;4991084;28;20551;-81
2022/06/08 00:07:41;;;;;;;12.85;5.60;;;10.80;99.90;;;;;;4990305;28;20045;-79
2022/06/08 00:10:07;;;;;;;17.85;5.55;;;10.70;99.90;;;;;;4988482;28;20507;-78
2022/06/08 00:12:34;;;;;;;15.15;5.43;;;10.70;99.90;;;;;;4988595;28;20048;-80
2022/06/08 00:14:59;;;;;;;13.00;6.10;;;10.60;99.90;;;;;;5007293;28;20038;-77
2022/06/08 00:17:25;;;;;;;14.88;5.70;;;10.60;99.90;;;;;;4986032;28;20046;-78
2022/06/08 00:19:51;;;;;;;13.82;6.03;;;10.70;99.90;;;;;;4985043;28;20044;-79
2022/06/08 00:22:17;;;;;;;11.45;6.00;;;10.70;99.90;;;;;;4982696;28;20057;-79
2022/06/08 00:24:43;;;;;;;12.25;5.75;;;10.60;99.90;;;;;;4983027;28;20057;-79
2022/06/08 00:27:09;;;;;;;18.35;6.32;;;10.60;99.90;;;;;;5000600;28;20128;-80
2022/06/08 00:29:35;;;;;;;16.08;6.60;;;10.60;99.90;;;;;;5007975;28;20046;-78
2022/06/08 00:32:01;;;;;;;18.67;5.80;;;10.60;99.90;;;;;;4983102;28;20042;-78
2022/06/08 00:34:26;;;;;;;16.20;5.70;;;10.60;99.90;;;;;;5002782;28;20046;-78
2022/06/08 00:36:52;;;;;;;14.70;6.22;;;10.70;99.90;;;;;;4965680;28;20177;-79
2022/06/08 00:39:18;;;;;;;13.35;5.72;;;10.60;99.90;;;;;;4974271;28;20117;-78
2022/06/08 00:41:48;;;;;;;13.75;5.80;;;10.60;99.90;;;;;;4973385;28;20061;-79
2022/06/08 00:44:21;;;;;;;10.80;5.07;;;10.50;99.90;;;;;;4994884;28;20362;-80
2022/06/08 00:46:48;;;;;;;11.15;5.93;;;10.50;99.90;;;;;;5001821;28;20046;-79
2022/06/08 00:49:26;;;;;;;16.80;6.22;;;10.50;99.90;;;;;;4962506;28;20033;-79
2022/06/08 00:51:53;;;;;;;12.45;6.38;;;10.50;99.90;;;;;;4966515;28;20177;-78
2022/06/08 00:54:27;;;;;;;17.15;6.78;;;10.50;99.90;;;;;;4982390;28;20073;-79
2022/06/08 00:57:10;;;;;;;10.68;6.60;;;10.50;99.90;;;;;;4964501;28;20093;-77
2022/06/08 00:59:46;;;;;;;11.43;6.55;;;10.50;99.90;;;;;;4977579;28;20096;-79
2022/06/08 01:02:16;;;;;;;11.35;6.10;;;10.50;99.90;;;;;;4970763;28;20102;-79
2022/06/08 01:04:45;;;;;;;14.50;6.68;;;10.60;99.90;;;;;;4969638;28;20140;-79
2022/06/08 01:07:17;;;;;;;17.65;6.50;;;10.40;99.90;;;;;;4978346;28;20216;-77
2022/06/08 01:09:44;;;;;;;12.25;6.30;;;10.50;99.90;;;;;;4973920;28;20046;-82
2022/06/08 01:12:18;;;;;;;11.68;6.10;;;10.50;99.90;;;;;;4968114;28;20065;-77
2022/06/08 01:14:44;;;;;;;13.20;6.60;;;10.40;99.90;;;;;;4979430;28;20034;-79
2022/06/08 01:17:16;;;;;;;14.55;6.32;;;10.50;99.90;;;;;;4966578;28;20057;-78
2022/06/08 01:19:47;;;;;;;11.23;6.32;;;10.40;99.90;;;;;;4948257;28;20501;-77
2022/06/08 01:22:16;;;;;;;13.55;6.07;;;10.50;99.90;;;;;;4979652;28;20078;-82
2022/06/08 01:24:45;;;;;;;14.88;6.57;;;10.40;99.90;;;;;;4986363;28;20149;-78
2022/06/08 01:27:34;;;;;;;12.90;6.30;;;10.40;99.90;;;;;;5002125;28;20477;-79
2022/06/08 01:30:26;;;;;;;12.77;6.00;;;10.40;99.90;;;;;;4984685;28;20062;-77
2022/06/08 01:33:30;;;;;;;12.43;5.20;;;10.40;99.90;;;;;;4998298;28;20061;-76
2022/06/08 01:36:27;;;;;;;13.50;5.60;;;10.30;99.90;;;;;;4993664;28;20481;-81
2022/06/08 01:39:05;;;;;;;10.73;6.30;;;10.30;99.90;;;;;;4981140;28;20057;-79
2022/06/08 01:41:55;;;;;;;17.42;6.35;;;10.30;99.90;;;;;;5001132;28;20046;-81
2022/06/08 01:45:28;;;;;;;14.20;6.30;;;10.20;99.90;;;;;;4982636;28;20484;-81
2022/06/08 01:47:49;;;;;;;10.38;6.07;;;10.30;99.90;;;;;;4983794;28;20058;-79
2022/06/08 01:50:44;;;;;;;12.60;6.25;;;10.20;99.90;;;;;;4985046;28;20060;-79
2022/06/08 01:53:23;;;;;;;14.73;6.60;;;10.30;99.90;;;;;;5002129;28;20049;-82
2022/06/08 01:56:18;;;;;;;14.50;6.72;;;10.30;99.90;;;;;;4984131;28;20115;-79
2022/06/08 01:58:54;;;;;;;14.37;7.10;;;10.20;99.90;;;;;;4932037;28;20126;-78
2022/06/08 02:01:34;;;;;;;13.68;6.57;;;10.30;99.90;;;;;;4934411;28;20059;-77
2022/06/08 02:04:14;;;;;;;14.57;6.88;;;10.30;99.90;;;;;;4949292;28;20043;-77
2022/06/08 02:07:03;;;;;;;18.02;6.80;;;10.30;99.90;;;;;;4940592;28;20098;-76
2022/06/08 02:09:33;;;;;;;11.07;5.88;;;10.10;99.90;;;;;;4927046;28;20051;-80
2022/06/08 02:12:05;;;;;;;12.85;6.50;;;10.20;99.90;;;;;;4939120;28;20533;-80
2022/06/08 02:14:39;;;;;;;15.20;7.18;;;10.20;99.90;;;;;;4934445;28;20047;-80
2022/06/08 02:17:30;;;;;;;15.98;6.53;;;10.10;99.90;;;;;;4927209;28;20578;-81
2022/06/08 02:20:07;;;;;;;10.68;6.88;;;10.20;99.90;;;;;;4923331;28;20125;-78
2022/06/08 02:22:49;;;;;;;9.45;5.85;;;10.10;99.90;;;;;;4939560;28;20106;-79
2022/06/08 02:25:20;;;;;;;12.27;6.95;;;10.10;99.90;;;;;;4940919;28;20147;-77
2022/06/08 02:28:03;;;;;;;14.93;6.85;;;10.10;99.90;;;;;;4924819;28;20043;-81
2022/06/08 02:30:32;;;;;;;18.00;7.32;;;10.10;99.90;;;;;;4925853;28;20055;-78
2022/06/08 02:36:19;;;;;;;11.07;6.40;;;10.20;99.90;;;;;;4958414;28;20061;-77
2022/06/08 02:38:56;;;;;;;10.23;6.65;;;10.10;99.90;;;;;;4970833;28;20050;-78
2022/06/08 02:41:23;;;;;;;11.98;7.22;;;10.20;99.90;;;;;;4967932;28;20477;-80
2022/06/08 02:43:54;;;;;;;12.70;6.85;;;10.20;99.90;;;;;;4982895;28;20080;-80
2022/06/08 02:46:26;;;;;;;18.73;7.78;;;10.10;99.90;;;;;;4983333;28;20042;-75
2022/06/08 02:48:52;;;;;;;12.75;7.97;;;10.20;99.90;;;;;;4979652;28;20042;-78
2022/06/08 02:51:28;;;;;;;12.18;7.05;;;10.20;99.90;;;;;;4969018;28;20080;-76
2022/06/08 02:54:07;;;;;;;15.60;8.25;;;10.30;99.90;;;;;;4966945;28;20134;-81
2022/06/08 02:56:39;;;;;;;21.88;8.25;;;10.20;99.90;;;;;;4981211;28;20038;-81
2022/06/08 02:59:14;;;;;;;16.15;8.20;;;10.20;99.90;;;;;;4986641;28;20030;-79
2022/06/08 03:02:06;;;;;;;15.93;8.00;;;10.20;99.90;;;;;;4973834;28;20049;-80
2022/06/08 03:04:54;;;;;;;12.82;7.85;;;10.20;99.90;;;;;;4969717;28;20045;-81
2022/06/08 03:07:30;;;;;;;16.70;8.32;;;10.10;99.90;;;;;;4984797;28;20164;-80
2022/06/08 03:09:59;;;;;;;17.40;7.97;;;10.10;99.90;;;;;;4972612;28;20132;-81
2022/06/08 03:12:34;;;;;;;15.43;7.85;;;10.20;99.90;;;;;;4974421;28;20124;-77
2022/06/08 03:15:00;;;;;;;;;;;10.20;99.90;;;;;;4971541;28;20117;-79
2022/06/08 03:17:29;;;;;;;16.58;8.40;;;10.10;99.90;;;;;;4992454;28;19921;-79
2022/06/08 03:19:55;;;;;;;18.63;8.88;;;10.20;99.90;;;;;;4967212;28;20422;-80
2022/06/08 03:22:22;;;;;;;15.85;8.20;;;10.10;99.90;;;;;;4993118;28;20061;-79
2022/06/08 03:24:48;;;;;;;17.20;9.20;;;10.10;99.90;;;;;;4982425;28;20060;-82
2022/06/08 03:27:15;;;;;;;15.70;8.82;;;10.20;99.90;;;;;;4995467;28;20042;-79
2022/06/08 03:29:41;;;;;;;12.70;9.35;;;10.10;99.90;;;;;;4976848;28;20105;-77
2022/06/08 03:32:07;;;;;;;19.52;9.80;;;10.20;99.90;;;;;;4989121;28;20065;-79
2022/06/08 03:34:33;;;;;;;20.17;10.23;;;10.10;99.90;;;;;;4971771;28;20046;-77
2022/06/08 03:36:59;;;;;;;18.77;9.43;;;10.20;99.90;;;;;;4966890;28;20913;-78
2022/06/08 03:39:25;;;;;;;22.55;10.70;;;10.20;99.90;;;;;;4987640;28;20053;-79
2022/06/08 03:41:51;;;;;;;17.50;10.65;;;10.20;99.90;;;;;;4973954;28;20042;-80
2022/06/08 03:44:16;;;;;;;16.20;9.63;;;10.30;99.90;;;;;;4987602;28;20046;-79
2022/06/08 03:46:59;;;;;;;19.83;11.40;;;10.20;99.90;;;;;;4976521;28;20041;-78
2022/06/08 03:49:26;;;;;;;20.02;11.57;;;10.20;99.90;;;;;;4957075;28;20118;-80
2022/06/08 03:52:10;;;;;;;24.33;12.60;;;10.30;99.90;;;;;;4973854;28;20112;-79
2022/06/08 03:54:39;;;;;;;25.38;13.13;;;10.30;99.90;;;;;;4985302;28;20453;-81
2022/06/08 03:57:07;;;;;;;30.15;13.65;;;10.40;99.90;;;;;;4985575;28;20057;-82
2022/06/08 03:59:35;;;;;;;19.92;12.57;;;10.40;99.90;;;;;;4972130;28;20104;-77
2022/06/08 04:02:02;;;;;;;25.38;13.50;;;10.50;99.90;;;;;;4968767;28;20058;-81
2022/06/08 04:04:28;;;;;;;25.00;14.45;;;10.60;99.90;;;;;;4965126;28;20030;-79
2022/06/08 04:06:54;;;;;;;24.35;12.30;;;10.70;99.90;;;;;;4976632;28;20226;-79
2022/06/08 04:09:20;;;;;;;23.88;13.32;;;10.70;99.90;;;;;;4969707;28;20583;-79
2022/06/08 04:11:46;;;;;;;21.98;13.30;;;10.70;99.90;;;;;;4955246;28;20082;-79
2022/06/08 04:14:12;;;;;;;19.35;12.93;;;10.80;99.90;;;;;;4969997;28;20038;-80
2022/06/08 04:16:38;;;;;;;24.10;13.50;;;10.80;99.90;;;;;;4975262;28;20119;-82
2022/06/08 04:19:04;;;;;;;23.98;13.65;;;11.00;99.90;;;;;;4979467;28;20057;-79
2022/06/08 04:21:30;;;;;;;23.83;14.00;;;11.10;99.90;;;;;;4987621;28;20072;-81
2022/06/08 04:23:56;;;;;;;20.40;13.82;;;11.10;99.90;;;;;;4985486;28;20109;-79
2022/06/08 04:26:23;;;;;;;20.35;12.95;;;11.30;99.90;;;;;;4987566;28;20175;-78
2022/06/08 04:28:49;;;;;;;22.48;12.38;;;11.40;99.90;;;;;;4997689;28;20099;-79
2022/06/08 04:31:16;;;;;;;22.00;13.50;;;11.70;99.90;;;;;;5002124;28;20033;-82
2022/06/08 04:33:42;;;;;;;20.25;12.45;;;12.40;99.90;;;;;;5004815;28;20046;-83
2022/06/08 04:36:09;;;;;;;21.40;13.15;;;13.10;99.90;;;;;;4986232;28;20126;-77
2022/06/08 04:38:35;;;;;;;16.58;11.93;;;13.80;99.90;;;;;;4988574;28;20507;-82
2022/06/08 04:41:02;;;;;;;18.60;12.57;;;14.60;99.90;;;;;;5001571;28;20049;-79
2022/06/08 04:43:27;;;;;;;19.67;12.13;;;15.20;99.90;;;;;;4986778;28;20346;-79
2022/06/08 04:45:53;;;;;;;15.85;12.00;;;15.70;99.90;;;;;;4992447;28;20053;-83
2022/06/08 04:48:19;;;;;;;21.50;11.25;;;16.00;99.90;;;;;;5003415;28;20125;-79
2022/06/08 04:50:46;;;;;;;19.70;11.93;;;15.30;99.90;;;;;;4987426;28;20609;-78
2022/06/08 04:53:11;;;;;;;16.75;12.30;;;14.70;99.90;;;;;;5000955;28;20041;-79
2022/06/08 04:55:40;;;;;;;22.42;13.25;;;14.20;99.90;;;;;;4999808;28;20044;-78
2022/06/08 04:58:06;;;;;;;22.77;13.25;;;13.90;99.90;;;;;;4993575;28;20049;-80
2022/06/08 05:00:32;;;;;;;20.77;13.98;;;13.70;99.90;;;;;;4981807;28;20057;-79
2022/06/08 05:02:58;;;;;;;22.92;13.90;;;13.60;99.90;;;;;;4988716;28;20527;-80
2022/06/08 05:05:26;;;;;;;20.52;13.77;;;13.50;99.90;;;;;;4986929;28;20184;-81
2022/06/08 05:07:53;;;;;;;21.80;14.70;;;13.30;99.90;;;;;;5006794;28;20050;-80
2022/06/08 05:10:21;;;;;;;24.23;15.88;;;13.30;99.90;;;;;;4988323;28;21836;-77
2022/06/08 05:12:47;;;;;;;20.75;14.55;;;13.20;99.90;;;;;;4966783;28;20042;-80
2022/06/08 05:15:18;;;;;;;21.10;15.23;;;13.20;99.90;;;;;;5000097;28;20113;-80
2022/06/08 05:17:44;;;;;;;26.23;16.02;;;13.10;99.90;;;;;;5002218;28;20050;-80
2022/06/08 05:20:12;;;;;;;26.42;16.80;;;13.10;99.90;;;;;;5007316;28;20448;-83
2022/06/08 05:22:38;;;;;;;24.42;16.60;;;13.10;99.90;;;;;;4988403;28;20038;-82
2022/06/08 05:25:11;;;;;;;27.20;16.20;;;13.10;99.90;;;;;;4995377;28;20125;-77
2022/06/08 05:27:38;;;;;;;25.25;16.80;;;13.20;99.90;;;;;;5002224;28;20107;-82
2022/06/08 05:30:05;;;;;;;26.45;16.55;;;13.20;99.90;;;;;;4985481;28;20045;-80
2022/06/08 05:32:30;;;;;;;27.95;16.30;;;13.30;99.90;;;;;;4998829;28;20060;-82
2022/06/08 05:34:56;;;;;;;28.15;16.98;;;13.30;99.90;;;;;;4988658;28;21898;-82
2022/06/08 05:37:22;;;;;;;28.10;17.15;;;13.30;99.90;;;;;;5005973;28;20945;-77
2022/06/08 05:39:47;;;;;;;27.15;17.88;;;13.40;99.90;;;;;;4984570;28;20040;-78
2022/06/08 05:42:13;;;;;;;26.30;17.17;;;13.40;99.90;;;;;;5003095;28;20116;-77
2022/06/08 05:44:39;;;;;;;27.65;16.70;;;13.40;99.90;;;;;;4986390;28;20563;-80
2022/06/08 05:47:04;;;;;;;26.80;16.77;;;13.50;99.90;;;;;;4986614;28;20048;-79
2022/06/08 05:49:33;;;;;;;26.05;18.08;;;13.60;99.90;;;;;;4988318;28;20025;-77
2022/06/08 05:51:59;;;;;;;28.65;18.38;;;13.70;99.90;;;;;;4983941;28;20073;-79
2022/06/08 05:54:25;;;;;;;29.77;17.90;;;13.80;99.90;;;;;;4998777;28;20046;-77
2022/06/08 05:56:51;;;;;;;24.40;17.02;;;13.80;99.90;;;;;;4999949;28;20547;-80
2022/06/08 05:59:17;;;;;;;29.83;18.67;;;13.90;99.90;;;;;;4989823;28;20045;-79
2022/06/08 06:01:45;;;;;;;28.20;17.52;;;14.00;99.90;;;;;;4988794;28;20401;-78
2022/06/08 06:04:12;;;;;;;24.23;17.80;;;14.10;99.90;;;;;;5004930;28;20066;-80
2022/06/08 06:06:43;;;;;;;25.33;17.63;;;14.10;99.90;;;;;;4984271;28;20125;-77
2022/06/08 06:09:10;;;;;;;32.35;18.70;;;14.30;99.90;;;;;;4991005;28;20052;-78
2022/06/08 06:11:36;;;;;;;26.25;18.10;;;14.40;99.90;;;;;;4994187;28;20084;-79
2022/06/08 06:14:03;;;;;;;28.27;17.50;;;14.50;99.90;;;;;;4989097;28;20053;-78
2022/06/08 06:16:29;;;;;;;27.42;18.60;;;14.70;99.90;;;;;;4990405;28;20128;-79
2022/06/08 06:18:55;;;;;;;27.25;17.85;;;14.80;99.90;;;;;;4991058;28;20169;-77
2022/06/08 06:21:28;;;;;;;25.92;17.05;;;14.90;99.90;;;;;;4985935;28;20121;-77
2022/06/08 06:23:55;;;;;;;28.40;17.92;;;15.00;99.90;;;;;;4994337;28;20042;-76
2022/06/08 06:26:21;;;;;;;24.33;16.80;;;15.00;99.90;;;;;;4994004;28;20112;-79
2022/06/08 06:28:47;;;;;;;25.85;16.92;;;15.20;99.90;;;;;;4982259;28;20058;-77
2022/06/08 06:31:22;;;;;;;25.45;16.65;;;15.20;99.90;;;;;;4970540;28;20171;-79
2022/06/08 06:33:48;;;;;;;26.42;17.13;;;15.50;99.90;;;;;;4979400;28;20513;-80
2022/06/08 06:36:14;;;;;;;25.20;17.35;;;15.60;99.90;;;;;;4975872;28;20123;-78
2022/06/08 06:38:42;;;;;;;27.27;16.77;;;15.60;99.90;;;;;;4970782;28;20030;-79
2022/06/08 06:41:15;;;;;;;25.42;17.08;;;15.80;99.90;;;;;;4989825;28;20065;-77
2022/06/08 06:43:40;;;;;;;23.52;16.30;;;16.00;99.90;;;;;;4986212;28;20101;-79
2022/06/08 06:46:08;;;;;;;23.20;14.95;;;15.90;99.90;;;;;;4983661;28;20425;-77
2022/06/08 06:48:36;;;;;;;21.13;14.70;;;16.10;99.90;;;;;;4983409;28;20205;-80
2022/06/08 06:51:03;;;;;;;20.67;15.13;;;16.10;99.90;;;;;;4969475;28;20050;-78
2022/06/08 06:53:28;;;;;;;19.25;15.00;;;16.20;99.90;;;;;;4985640;28;20051;-78
2022/06/08 06:55:57;;;;;;;21.98;14.32;;;16.20;99.90;;;;;;4973854;28;20525;-79
2022/06/08 06:58:23;;;;;;;23.52;14.85;;;16.40;99.90;;;;;;4988732;28;20149;-79
2022/06/08 07:00:49;;;;;;;20.58;14.38;;;16.60;99.90;;;;;;4975832;28;20120;-78
2022/06/08 07:03:16;;;;;;;19.52;14.43;;;16.70;99.90;;;;;;4969480;28;20054;-78
2022/06/08 07:05:45;;;;;;;19.83;14.63;;;16.80;99.90;;;;;;4982257;28;20049;-77
2022/06/08 07:08:11;;;;;;;36.72;17.83;;;16.80;99.90;;;;;;4999002;28;20133;-77
2022/06/08 07:10:36;;;;;;;53.17;24.25;;;16.70;99.90;;;;;;4991160;28;20607;-80
2022/06/08 07:13:03;;;;;;;24.10;14.40;;;16.80;99.90;;;;;;4955816;28;20069;-81
2022/06/08 07:15:29;;;;;;;17.52;10.07;;;16.70;99.90;;;;;;4988194;28;20216;-78
2022/06/08 07:17:55;;;;;;;18.23;11.27;;;16.90;99.90;;;;;;4975163;28;20477;-80
2022/06/08 07:20:21;;;;;;;29.77;9.73;;;17.20;99.90;;;;;;4973827;28;20035;-78
2022/06/08 07:22:49;;;;;;;30.73;9.60;;;17.30;99.90;;;;;;5002118;28;20065;-79
2022/06/08 07:25:16;;;;;;;16.58;11.93;;;17.60;99.90;;;;;;4996726;28;21574;-79
2022/06/08 07:27:44;;;;;;;17.45;8.38;;;17.80;99.90;;;;;;4991042;28;20213;-80
2022/06/08 07:30:11;;;;;;;15.13;9.55;;;18.00;99.90;;;;;;4992473;28;20048;-79
2022/06/08 07:32:36;;;;;;;11.02;8.20;;;18.10;99.90;;;;;;4990240;28;20046;-80
2022/06/08 07:35:04;;;;;;;13.27;7.88;;;18.10;99.90;;;;;;4985569;28;20049;-79
2022/06/08 07:37:30;;;;;;;12.77;7.70;;;18.20;99.90;;;;;;4994966;28;20092;-76
2022/06/08 07:39:56;;;;;;;13.60;8.27;;;18.30;99.90;;;;;;4989081;28;20960;-78
2022/06/08 07:42:22;;;;;;;13.98;7.95;;;18.30;99.90;;;;;;4987817;28;20056;-77
2022/06/08 07:44:48;;;;;;;11.50;6.00;;;18.30;99.90;;;;;;4975114;28;20087;-80
2022/06/08 07:47:14;;;;;;;11.18;7.38;;;18.30;99.90;;;;;;4990503;28;20061;-77
2022/06/08 07:49:41;;;;;;;9.48;6.75;;;18.40;99.90;;;;;;5007237;28;20429;-78
2022/06/08 07:52:13;;;;;;;11.27;6.85;;;18.40;99.90;;;;;;4998071;28;20062;-76
2022/06/08 07:58:03;;;;;;;8.45;6.40;;;18.40;99.90;;;;;;5007195;28;20057;-77
2022/06/08 08:00:29;;;;;;;10.07;5.72;;;18.50;99.90;;;;;;4990479;28;20046;-77
2022/06/08 08:02:55;;;;;;;9.48;6.07;;;18.40;99.90;;;;;;4991034;28;20082;-78
2022/06/08 08:05:22;;;;;;;11.50;4.47;;;18.60;99.90;;;;;;4987168;28;20081;-81
2022/06/08 08:07:48;;;;;;;8.63;5.80;;;18.60;99.90;;;;;;4985606;28;20033;-80
2022/06/08 08:10:20;;;;;;;8.30;5.72;;;18.70;99.90;;;;;;5003141;28;20034;-78
2022/06/08 08:12:47;;;;;;;15.98;5.47;;;18.80;99.90;;;;;;5001145;28;20045;-74
2022/06/08 08:15:16;;;;;;;8.63;4.88;;;19.00;99.90;;;;;;4987885;28;20045;-78
2022/06/08 08:17:43;;;;;;;6.82;3.92;;;19.20;99.90;;;;;;4987375;28;20511;-78
2022/06/08 08:20:13;;;;;;;7.00;4.57;;;19.40;99.90;;;;;;4984541;28;20072;-77
2022/06/08 08:22:38;;;;;;;8.05;4.38;;;19.40;99.90;;;;;;4985965;28;20140;-81
2022/06/08 08:25:05;;;;;;;7.40;4.22;;;19.40;99.90;;;;;;4989452;28;20148;-76
2022/06/08 08:27:30;;;;;;;6.60;4.07;;;19.50;99.90;;;;;;5002245;28;20038;-79
2022/06/08 08:29:56;;;;;;;4.07;3.15;;;19.60;99.90;;;;;;4985343;28;20108;-77
2022/06/08 08:32:22;;;;;;;7.10;3.40;;;19.60;99.90;;;;;;4988335;28;20048;-79
2022/06/08 08:34:48;;;;;;;5.38;3.03;;;19.60;99.90;;;;;;5004102;28;20054;-81
2022/06/08 08:37:13;;;;;;;4.80;2.72;;;19.60;99.90;;;;;;5000871;28;20076;-78
2022/06/08 08:39:40;;;;;;;4.85;2.90;;;19.50;99.90;;;;;;4988154;28;20505;-77
2022/06/08 08:42:21;;;;;;;5.80;2.67;;;19.60;99.90;;;;;;4989810;28;20038;-77
2022/06/08 08:44:58;;;;;;;14.85;5.35;;;19.80;99.90;;;;;;4988328;28;20045;-76
2022/06/08 08:47:42;;;;;;;4.78;2.90;;;20.10;99.90;;;;;;5003723;28;20038;-79
2022/06/08 08:50:22;;;;;;;4.70;2.63;;;20.20;99.90;;;;;;5001445;28;20180;-79
2022/06/08 08:53:09;;;;;;;3.63;2.30;;;20.30;99.90;;;;;;4985019;28;20045;-77
2022/06/08 08:55:41;;;;;;;3.85;2.30;;;20.30;99.90;;;;;;4976758;28;20368;-77
2022/06/08 08:58:07;;;;;;;5.70;2.70;;;20.30;99.90;;;;;;4989492;28;20100;-78
2022/06/08 09:00:37;;;;;;;3.38;1.80;;;20.50;99.90;;;;;;4988056;28;20116;-79
2022/06/08 09:03:28;;;;;;;4.38;1.77;;;20.70;99.90;;;;;;4986732;28;20381;-79
2022/06/08 09:06:12;;;;;;;2.53;1.42;;;20.80;99.90;;;;;;4985077;28;20401;-80
2022/06/08 09:08:43;;;;;;;2.08;1.30;;;21.20;99.90;;;;;;4988884;28;20056;-79
2022/06/08 09:11:24;;;;;;;2.28;1.17;;;21.50;99.90;;;;;;4983765;28;20426;-80
2022/06/08 09:13:54;;;;;;;2.90;1.27;;;21.60;99.90;;;;;;4988628;28;20042;-80
2022/06/08 09:16:41;;;;;;;1.88;0.95;;;21.60;99.90;;;;;;5006214;28;20485;-80
2022/06/08 09:19:22;;;;;;;3.85;1.25;;;21.70;99.90;;;;;;4991402;28;20164;-78
2022/06/08 09:21:52;;;;;;;3.00;1.38;;;21.90;99.90;;;;;;5009581;28;20540;-80
2022/06/08 09:24:34;;;;;;;4.45;1.83;;;21.90;99.90;;;;;;4998973;28;20045;-79
2022/06/08 09:27:31;;;;;;;6.38;1.77;;;21.80;99.90;;;;;;5016889;28;20497;-77
2022/06/08 09:30:15;;;;;;;1.65;1.52;;;21.70;99.90;;;;;;4990774;28;20046;-75
2022/06/08 09:32:56;;;;;;;2.53;1.63;;;21.60;99.90;;;;;;4994599;28;20467;-77
2022/06/08 09:35:22;;;;;;;4.00;2.00;;;21.60;99.90;;;;;;4991647;28;20084;-76
2022/06/08 09:37:54;;;;;;;4.10;1.75;;;21.60;99.90;;;;;;4990462;28;20081;-80
2022/06/08 09:40:38;;;;;;;4.20;1.58;;;21.50;99.90;;;;;;5009659;28;20125;-77
2022/06/08 09:43:23;;;;;;;2.97;1.30;;;21.30;99.90;;;;;;5001585;28;20064;-77
2022/06/08 09:46:03;;;;;;;5.50;1.40;;;21.70;99.90;;;;;;4998049;28;20049;-79
2022/06/08 09:52:20;;;;;;;2.08;1.42;;;21.70;99.90;;;;;;5017643;28;20063;-79
2022/06/08 09:55:03;;;;;;;4.93;1.33;;;21.70;99.90;;;;;;5014406;28;20057;-79
2022/06/08 09:57:41;;;;;;;3.83;1.73;;;22.10;99.90;;;;;;5029398;28;20036;-77
2022/06/08 10:00:28;;;;;;;5.38;2.22;;;22.30;99.90;;;;;;5017521;28;20066;-81
2022/06/08 10:03:15;;;;;;;3.55;1.40;;;22.60;99.90;;;;;;5006760;28;20062;-78
2022/06/08 10:05:56;;;;;;;4.95;1.92;;;22.70;99.90;;;;;;4991519;28;20137;-78
2022/06/08 10:08:28;;;;;;;13.40;3.15;;;22.70;99.90;;;;;;4988673;28;20046;-79
2022/06/08 10:14:21;;;;;;;4.80;1.25;;;22.40;99.90;;;;;;4994876;28;20133;-80
2022/06/08 10:16:56;;;;;;;4.18;1.25;;;22.10;99.90;;;;;;4994777;28;20129;-81
2022/06/08 10:19:45;;;;;;;5.32;1.42;;;21.90;99.90;;;;;;5009750;28;20303;-82
2022/06/08 10:22:12;;;;;;;5.38;1.50;;;21.70;99.90;;;;;;4995221;28;20074;-80
2022/06/08 10:25:02;;;;;;;3.65;1.40;;;21.40;99.90;;;;;;5009888;28;20529;-79
2022/06/08 10:27:45;;;;;;;3.53;1.20;;;21.40;99.90;;;;;;5009609;28;20128;-80
2022/06/08 10:30:24;;;;;;;3.13;1.50;;;21.40;99.90;;;;;;5010135;28;20054;-80
2022/06/08 10:33:00;;;;;;;4.43;1.70;;;21.50;99.90;;;;;;4978172;28;20120;-80
2022/06/08 10:35:33;;;;;;;2.90;1.65;;;21.80;99.90;;;;;;5002698;28;20075;-77
2022/06/08 10:38:00;;;;;;;5.50;1.65;;;22.10;99.90;;;;;;4987083;28;20504;-79
2022/06/08 10:40:36;;;;;;;3.03;1.50;;;22.40;99.90;;;;;;5011858;28;20173;-79
2022/06/08 10:43:03;;;;;;;4.15;1.92;;;22.40;99.90;;;;;;5006444;28;20413;-80
2022/06/08 10:45:35;;;;;;;6.82;2.08;;;22.60;99.90;;;;;;4998523;28;20528;-79
2022/06/08 10:48:23;;;;;;;4.70;2.10;;;23.00;99.90;;;;;;4995920;28;20030;-80
2022/06/08 10:51:20;;;;;;;6.13;2.03;;;23.30;99.90;;;;;;5011880;28;20122;-79
2022/06/08 10:57:42;;;;;;;5.88;2.55;;;23.70;99.90;;;;;;4999443;28;20054;-79
2022/06/08 11:00:23;;;;;;;5.78;2.60;;;23.50;99.90;;;;;;4989607;28;20057;-81
2022/06/08 11:02:54;;;;;;;5.38;2.33;;;23.40;99.90;;;;;;5006509;28;20844;-81
2022/06/08 11:05:36;;;;;;;4.22;2.55;;;23.20;99.90;;;;;;5007481;28;20050;-79
2022/06/08 11:08:09;;;;;;;4.70;2.70;;;23.00;99.90;;;;;;5008899;28;20045;-84
2022/06/08 11:10:44;;;;;;;8.73;2.80;;;22.80;99.90;;;;;;5002621;28;20091;-81
2022/06/08 11:13:22;;;;;;;4.45;2.65;;;22.70;99.90;;;;;;4985655;28;20072;-77
2022/06/08 11:15:55;;;;;;;7.70;2.78;;;22.50;99.90;;;;;;4986265;28;20050;-81
2022/06/08 11:18:59;;;;;;;5.80;2.80;;;22.40;99.90;;;;;;4982606;28;20057;-80
2022/06/08 11:21:44;;;;;;;5.45;2.55;;;22.20;99.90;;;;;;5005043;28;20140;-81
2022/06/08 11:24:17;;;;;;;4.72;2.13;;;22.10;99.90;;;;;;4988207;28;20060;-78
2022/06/08 11:27:20;;;;;;;4.05;2.17;;;21.80;99.90;;;;;;4984590;28;20046;-81
2022/06/08 11:29:52;;;;;;;2.50;2.10;;;21.70;99.90;;;;;;4986235;28;20054;-77
2022/06/08 11:32:36;;;;;;;7.70;3.13;;;21.60;99.90;;;;;;4977007;28;20141;-82
2022/06/08 11:35:28;;;;;;;7.60;3.13;;;21.30;99.90;;;;;;5003502;28;20057;-80
2022/06/08 11:38:26;;;;;;;6.57;3.03;;;20.80;99.90;;;;;;4928547;29;20091;-80
2022/06/08 11:41:15;;;;;;;8.00;2.70;;;20.40;99.90;;;;;;4910669;29;20495;-80
2022/06/08 11:43:43;;;;;;;10.15;3.17;;;20.20;99.90;;;;;;4908848;29;20509;-78
2022/06/08 11:46:35;;;;;;;8.50;3.17;;;20.20;99.90;;;;;;4908525;29;20209;-80
2022/06/08 11:49:01;;;;;;;4.65;3.10;;;20.10;99.90;;;;;;4908223;29;20051;-82
2022/06/08 11:51:41;;;;;;;6.22;2.90;;;20.00;99.90;;;;;;4923908;29;20086;-79
2022/06/08 11:54:26;;;;;;;6.05;3.08;;;20.00;99.90;;;;;;4915400;29;20131;-80
2022/06/08 11:57:12;;;;;;;5.75;3.20;;;19.90;99.90;;;;;;4906178;29;20046;-85
2022/06/08 11:59:41;;;;;;;4.28;2.65;;;19.90;99.90;;;;;;4909119;29;20210;-85
2022/06/08 12:02:18;;;;;;;9.35;3.13;;;19.90;99.90;;;;;;4910866;29;20142;-84
2022/06/08 12:04:46;;;;;;;6.03;3.47;;;19.90;99.90;;;;;;4909947;29;20477;-86
2022/06/08 12:07:51;;;;;;;7.15;3.70;;;19.90;99.90;;;;;;4909754;29;20043;-83
2022/06/08 12:10:21;;;;;;;6.53;3.80;;;19.80;99.90;;;;;;4927966;29;20466;-81
2022/06/08 12:12:48;;;;;;;7.35;2.83;;;19.80;99.90;;;;;;4908087;29;20202;-82
2022/06/08 12:15:38;;;;;;;5.78;4.15;;;19.90;99.90;;;;;;4973845;28;20092;-81
2022/06/08 12:18:22;;;;;;;5.88;3.75;;;20.00;99.90;;;;;;5017300;28;20060;-84
2022/06/08 12:21:00;;;;;;;8.32;4.00;;;20.10;99.90;;;;;;5003496;28;20144;-79
2022/06/08 12:23:44;;;;;;;10.73;4.00;;;20.20;99.90;;;;;;4999764;28;20076;-83
2022/06/08 12:26:55;;;;;;;5.55;3.53;;;20.40;99.90;;;;;;5005605;28;20045;-82
2022/06/08 12:29:32;;;;;;;7.00;3.78;;;20.60;99.90;;;;;;4972112;28;20045;-82
2022/06/08 12:32:00;;;;;;;7.65;4.13;;;21.20;99.90;;;;;;4987701;28;20219;-83
2022/06/08 12:34:40;;;;;;;6.78;3.78;;;21.60;99.90;;;;;;4987555;28;20042;-77
2022/06/08 12:37:44;;;;;;;10.13;4.22;;;21.60;99.90;;;;;;4990677;28;20053;-77
2022/06/08 12:40:16;;;;;;;13.77;4.93;;;21.20;99.90;;;;;;4919789;29;20056;-79
2022/06/08 12:42:49;;;;;;;7.40;3.78;;;20.90;99.90;;;;;;4893589;29;20047;-76
2022/06/08 12:45:46;;;;;;;8.57;4.30;;;20.50;99.90;;;;;;4900836;29;20063;-78
2022/06/08 12:48:29;;;;;;;7.63;3.20;;;20.10;99.90;;;;;;4851794;29;20062;-81
2022/06/08 12:50:56;;;;;;;6.03;2.50;;;19.80;99.90;;;;;;4851062;29;20132;-77
2022/06/08 12:53:22;;;;;;;4.80;1.85;;;19.60;99.90;;;;;;4852086;29;20061;-78
2022/06/08 12:55:49;;;;;;;6.50;1.45;;;19.50;99.90;;;;;;4855060;29;20061;-77
2022/06/08 12:58:16;;;;;;;3.83;1.70;;;19.10;99.90;;;;;;4835468;29;20151;-80
2022/06/08 13:00:53;;;;;;;5.35;1.60;;;19.00;99.90;;;;;;4848541;29;20465;-78
2022/06/08 13:03:21;;;;;;;8.68;1.90;;;18.90;99.90;;;;;;4841486;29;20061;-79
2022/06/08 13:05:47;;;;;;;10.63;1.85;;;18.70;99.90;;;;;;4849129;29;20519;-77
2022/06/08 13:08:20;;;;;;;8.00;1.92;;;18.80;99.90;;;;;;4815736;29;20046;-76
2022/06/08 13:10:51;;;;;;;3.67;1.38;;;18.80;99.90;;;;;;4862615;29;20144;-80
2022/06/08 13:13:24;;;;;;;4.40;1.40;;;18.80;99.90;;;;;;4871881;28;20055;-75
2022/06/08 13:15:50;;;;;;;8.45;1.90;;;18.80;99.90;;;;;;4924718;28;21177;-78
2022/06/08 13:18:21;;;;;;;9.65;2.05;;;18.80;99.90;;;;;;4938127;28;20098;-80
2022/06/08 13:20:48;;;;;;;5.65;2.00;;;18.80;99.90;;;;;;4928492;28;20090;-82
2022/06/08 13:23:15;;;;;;;8.05;2.00;;;18.80;99.90;;;;;;4927527;28;20046;-81